sensor_id;sensor_type;location;lat;lon;timestamp;P1;durP1;ratioP1;P2;durP2;ratioP2
11425;SDS011;5769;47.998;7.788;2023-01-26T00:00:24;1.65;;;0.95;;
11425;SDS011;5769;47.998;7.788;2023-01-26T00:02:55;2.25;;;1.05;;
11425;SDS011;5769;47.998;7.788;2023-01-26T00:05:27;1.88;;;0.80;;
11425;SDS011;5769;47.998;7.788;2023-01-26T00:07:59;1.52;;;0.82;;
11425;SDS011;5769;47.998;7.788;2023-01-26T00:10:35;1.77;;;1.00;;
11425;SDS011;5769;47.998;7.788;2023-01-26T00:13:14;2.15;;;1.00;;
11425;SDS011;5769;47.998;7.788;2023-01-26T00:15:56;1.65;;;1.00;;
11425;SDS011;5769;47.998;7.788;2023-01-26T00:18:26;1.92;;;0.80;;
11425;SDS011;5769;47.998;7.788;2023-01-26T00:21:13;2.70;;;1.17;;
11425;SDS011;5769;47.998;7.788;2023-01-26T00:23:49;2.97;;;0.98;;
11425;SDS011;5769;47.998;7.788;2023-01-26T00:26:33;2.15;;;1.00;;
11425;SDS011;5769;47.998;7.788;2023-01-26T00:29:06;3.22;;;1.27;;
11425;SDS011;5769;47.998;7.788;2023-01-26T00:31:37;1.73;;;1.00;;
11425;SDS011;5769;47.998;7.788;2023-01-26T00:34:13;2.22;;;1.10;;
11425;SDS011;5769;47.998;7.788;2023-01-26T00:36:46;2.28;;;1.10;;
11425;SDS011;5769;47.998;7.788;2023-01-26T00:39:13;1.63;;;0.90;;
11425;SDS011;5769;47.998;7.788;2023-01-26T00:41:43;1.80;;;0.90;;
11425;SDS011;5769;47.998;7.788;2023-01-26T00:44:38;2.35;;;1.08;;
11425;SDS011;5769;47.998;7.788;2023-01-26T00:47:12;1.45;;;0.82;;
11425;SDS011;5769;47.998;7.788;2023-01-26T00:49:40;2.33;;;1.13;;
11425;SDS011;5769;47.998;7.788;2023-01-26T00:52:08;1.90;;;0.98;;
11425;SDS011;5769;47.998;7.788;2023-01-26T00:54:35;1.63;;;0.90;;
11425;SDS011;5769;47.998;7.788;2023-01-26T00:57:02;1.52;;;0.90;;
11425;SDS011;5769;47.998;7.788;2023-01-26T00:59:29;2.08;;;1.02;;
11425;SDS011;5769;47.998;7.788;2023-01-26T01:01:57;1.77;;;0.90;;
11425;SDS011;5769;47.998;7.788;2023-01-26T01:04:26;1.75;;;0.90;;
11425;SDS011;5769;47.998;7.788;2023-01-26T01:06:55;1.38;;;0.98;;
11425;SDS011;5769;47.998;7.788;2023-01-26T01:09:22;1.80;;;1.00;;
11425;SDS011;5769;47.998;7.788;2023-01-26T01:11:50;1.92;;;1.00;;
11425;SDS011;5769;47.998;7.788;2023-01-26T01:14:19;1.40;;;0.93;;
11425;SDS011;5769;47.998;7.788;2023-01-26T01:16:48;1.60;;;1.00;;
11425;SDS011;5769;47.998;7.788;2023-01-26T01:19:15;1.60;;;1.00;;
11425;SDS011;5769;47.998;7.788;2023-01-26T01:21:46;1.80;;;1.05;;
11425;SDS011;5769;47.998;7.788;2023-01-26T01:24:14;2.08;;;0.90;;
11425;SDS011;5769;47.998;7.788;2023-01-26T01:26:41;1.75;;;1.00;;
11425;SDS011;5769;47.998;7.788;2023-01-26T01:29:10;2.58;;;1.10;;
11425;SDS011;5769;47.998;7.788;2023-01-26T01:31:38;2.42;;;1.00;;
11425;SDS011;5769;47.998;7.788;2023-01-26T01:34:07;2.75;;;1.10;;
11425;SDS011;5769;47.998;7.788;2023-01-26T01:36:39;2.53;;;1.00;;
11425;SDS011;5769;47.998;7.788;2023-01-26T01:39:06;1.50;;;0.90;;
11425;SDS011;5769;47.998;7.788;2023-01-26T01:41:36;1.48;;;0.90;;
11425;SDS011;5769;47.998;7.788;2023-01-26T01:44:11;2.35;;;1.10;;
11425;SDS011;5769;47.998;7.788;2023-01-26T01:46:44;2.15;;;1.00;;
11425;SDS011;5769;47.998;7.788;2023-01-26T01:49:17;3.22;;;0.90;;
11425;SDS011;5769;47.998;7.788;2023-01-26T01:51:50;1.40;;;0.82;;
11425;SDS011;5769;47.998;7.788;2023-01-26T01:54:24;1.63;;;0.90;;
11425;SDS011;5769;47.998;7.788;2023-01-26T01:56:58;2.72;;;1.00;;
11425;SDS011;5769;47.998;7.788;2023-01-26T01:59:29;2.10;;;1.15;;
11425;SDS011;5769;47.998;7.788;2023-01-26T02:01:57;2.38;;;1.10;;
11425;SDS011;5769;47.998;7.788;2023-01-26T02:04:26;1.27;;;0.90;;
11425;SDS011;5769;47.998;7.788;2023-01-26T02:06:53;1.83;;;1.02;;
11425;SDS011;5769;47.998;7.788;2023-01-26T02:09:25;2.00;;;0.73;;
11425;SDS011;5769;47.998;7.788;2023-01-26T02:12:14;1.80;;;1.20;;
11425;SDS011;5769;47.998;7.788;2023-01-26T02:14:45;1.73;;;0.80;;
11425;SDS011;5769;47.998;7.788;2023-01-26T02:17:13;1.63;;;1.02;;
11425;SDS011;5769;47.998;7.788;2023-01-26T02:19:43;1.95;;;0.90;;
11425;SDS011;5769;47.998;7.788;2023-01-26T02:22:19;2.42;;;0.98;;
11425;SDS011;5769;47.998;7.788;2023-01-26T02:24:55;1.42;;;0.90;;
11425;SDS011;5769;47.998;7.788;2023-01-26T02:27:32;1.88;;;1.00;;
11425;SDS011;5769;47.998;7.788;2023-01-26T02:30:03;2.22;;;1.00;;
11425;SDS011;5769;47.998;7.788;2023-01-26T02:32:31;1.38;;;0.90;;
11425;SDS011;5769;47.998;7.788;2023-01-26T02:34:58;2.22;;;0.98;;
11425;SDS011;5769;47.998;7.788;2023-01-26T02:37:25;2.33;;;0.93;;
11425;SDS011;5769;47.998;7.788;2023-01-26T02:39:55;1.33;;;1.00;;
11425;SDS011;5769;47.998;7.788;2023-01-26T02:42:26;1.90;;;1.00;;
11425;SDS011;5769;47.998;7.788;2023-01-26T02:45:07;1.35;;;0.77;;
11425;SDS011;5769;47.998;7.788;2023-01-26T02:47:36;1.55;;;1.10;;
11425;SDS011;5769;47.998;7.788;2023-01-26T02:50:04;2.13;;;1.00;;
11425;SDS011;5769;47.998;7.788;2023-01-26T02:52:31;1.65;;;1.20;;
11425;SDS011;5769;47.998;7.788;2023-01-26T02:54:58;1.98;;;1.00;;
11425;SDS011;5769;47.998;7.788;2023-01-26T02:57:42;1.58;;;0.90;;
11425;SDS011;5769;47.998;7.788;2023-01-26T03:00:17;1.52;;;0.90;;
11425;SDS011;5769;47.998;7.788;2023-01-26T03:02:48;1.70;;;1.00;;
11425;SDS011;5769;47.998;7.788;2023-01-26T03:05:16;1.40;;;0.80;;
11425;SDS011;5769;47.998;7.788;2023-01-26T03:07:44;2.35;;;1.00;;
11425;SDS011;5769;47.998;7.788;2023-01-26T03:10:12;1.88;;;0.88;;
11425;SDS011;5769;47.998;7.788;2023-01-26T03:12:41;1.95;;;0.95;;
11425;SDS011;5769;47.998;7.788;2023-01-26T03:15:08;1.35;;;0.75;;
11425;SDS011;5769;47.998;7.788;2023-01-26T03:18:01;2.08;;;0.90;;
11425;SDS011;5769;47.998;7.788;2023-01-26T03:20:54;2.03;;;0.95;;
11425;SDS011;5769;47.998;7.788;2023-01-26T03:23:40;1.98;;;1.00;;
11425;SDS011;5769;47.998;7.788;2023-01-26T03:26:33;1.98;;;0.80;;
11425;SDS011;5769;47.998;7.788;2023-01-26T03:29:18;2.20;;;0.90;;
11425;SDS011;5769;47.998;7.788;2023-01-26T03:31:44;1.45;;;0.90;;
11425;SDS011;5769;47.998;7.788;2023-01-26T03:34:14;1.17;;;0.80;;
11425;SDS011;5769;47.998;7.788;2023-01-26T03:36:40;1.67;;;0.98;;
11425;SDS011;5769;47.998;7.788;2023-01-26T03:39:07;1.80;;;1.02;;
11425;SDS011;5769;47.998;7.788;2023-01-26T03:41:55;1.40;;;0.85;;
11425;SDS011;5769;47.998;7.788;2023-01-26T03:44:39;1.45;;;0.80;;
11425;SDS011;5769;47.998;7.788;2023-01-26T03:47:23;1.35;;;0.75;;
11425;SDS011;5769;47.998;7.788;2023-01-26T03:50:09;1.10;;;0.80;;
11425;SDS011;5769;47.998;7.788;2023-01-26T03:52:53;1.83;;;0.93;;
11425;SDS011;5769;47.998;7.788;2023-01-26T03:55:37;1.85;;;0.80;;
11425;SDS011;5769;47.998;7.788;2023-01-26T03:58:22;1.27;;;0.80;;
11425;SDS011;5769;47.998;7.788;2023-01-26T04:00:49;1.40;;;0.80;;
11425;SDS011;5769;47.998;7.788;2023-01-26T04:03:16;1.48;;;0.82;;
11425;SDS011;5769;47.998;7.788;2023-01-26T04:06:01;1.40;;;0.80;;
11425;SDS011;5769;47.998;7.788;2023-01-26T04:08:46;0.70;;;0.63;;
11425;SDS011;5769;47.998;7.788;2023-01-26T04:11:13;2.53;;;0.90;;
11425;SDS011;5769;47.998;7.788;2023-01-26T04:13:42;1.33;;;0.70;;
11425;SDS011;5769;47.998;7.788;2023-01-26T04:16:26;1.58;;;0.70;;
11425;SDS011;5769;47.998;7.788;2023-01-26T04:19:13;1.33;;;0.80;;
11425;SDS011;5769;47.998;7.788;2023-01-26T04:21:59;1.05;;;0.80;;
11425;SDS011;5769;47.998;7.788;2023-01-26T04:24:26;1.83;;;0.90;;
11425;SDS011;5769;47.998;7.788;2023-01-26T04:26:55;1.13;;;0.80;;
11425;SDS011;5769;47.998;7.788;2023-01-26T04:29:22;1.80;;;0.80;;
11425;SDS011;5769;47.998;7.788;2023-01-26T04:31:49;1.15;;;0.70;;
11425;SDS011;5769;47.998;7.788;2023-01-26T04:34:16;1.20;;;0.73;;
11425;SDS011;5769;47.998;7.788;2023-01-26T04:36:43;1.58;;;0.80;;
11425;SDS011;5769;47.998;7.788;2023-01-26T04:39:11;2.22;;;1.00;;
11425;SDS011;5769;47.998;7.788;2023-01-26T04:41:39;1.23;;;0.70;;
11425;SDS011;5769;47.998;7.788;2023-01-26T04:44:06;1.15;;;0.80;;
11425;SDS011;5769;47.998;7.788;2023-01-26T04:46:33;1.38;;;0.80;;
11425;SDS011;5769;47.998;7.788;2023-01-26T04:49:00;1.90;;;1.00;;
11425;SDS011;5769;47.998;7.788;2023-01-26T04:51:27;1.17;;;0.70;;
11425;SDS011;5769;47.998;7.788;2023-01-26T04:53:53;1.85;;;0.80;;
11425;SDS011;5769;47.998;7.788;2023-01-26T04:56:23;1.30;;;0.70;;
11425;SDS011;5769;47.998;7.788;2023-01-26T04:58:53;1.55;;;0.80;;
11425;SDS011;5769;47.998;7.788;2023-01-26T05:01:21;1.10;;;0.80;;
11425;SDS011;5769;47.998;7.788;2023-01-26T05:03:48;1.20;;;0.85;;
11425;SDS011;5769;47.998;7.788;2023-01-26T05:06:15;1.33;;;0.70;;
11425;SDS011;5769;47.998;7.788;2023-01-26T05:08:42;1.50;;;0.88;;
11425;SDS011;5769;47.998;7.788;2023-01-26T05:11:10;1.60;;;0.90;;
11425;SDS011;5769;47.998;7.788;2023-01-26T05:13:38;1.15;;;0.70;;
11425;SDS011;5769;47.998;7.788;2023-01-26T05:16:11;1.65;;;0.95;;
11425;SDS011;5769;47.998;7.788;2023-01-26T05:18:39;2.53;;;1.10;;
11425;SDS011;5769;47.998;7.788;2023-01-26T05:21:08;1.25;;;0.82;;
11425;SDS011;5769;47.998;7.788;2023-01-26T05:23:37;1.13;;;0.70;;
11425;SDS011;5769;47.998;7.788;2023-01-26T05:26:04;1.30;;;0.80;;
11425;SDS011;5769;47.998;7.788;2023-01-26T05:28:32;1.35;;;0.80;;
11425;SDS011;5769;47.998;7.788;2023-01-26T05:31:04;1.30;;;0.70;;
11425;SDS011;5769;47.998;7.788;2023-01-26T05:33:30;1.10;;;0.80;;
11425;SDS011;5769;47.998;7.788;2023-01-26T05:36:02;0.88;;;0.70;;
11425;SDS011;5769;47.998;7.788;2023-01-26T05:38:30;1.10;;;0.80;;
11425;SDS011;5769;47.998;7.788;2023-01-26T05:41:00;1.42;;;0.75;;
11425;SDS011;5769;47.998;7.788;2023-01-26T05:43:31;2.10;;;0.82;;
11425;SDS011;5769;47.998;7.788;2023-01-26T05:45:58;2.13;;;1.35;;
11425;SDS011;5769;47.998;7.788;2023-01-26T05:48:26;5.40;;;5.03;;
11425;SDS011;5769;47.998;7.788;2023-01-26T05:50:54;1.60;;;0.80;;
11425;SDS011;5769;47.998;7.788;2023-01-26T05:53:23;1.45;;;0.80;;
11425;SDS011;5769;47.998;7.788;2023-01-26T05:55:52;1.52;;;0.90;;
11425;SDS011;5769;47.998;7.788;2023-01-26T05:58:19;0.90;;;0.68;;
11425;SDS011;5769;47.998;7.788;2023-01-26T06:00:48;1.40;;;0.80;;
11425;SDS011;5769;47.998;7.788;2023-01-26T06:03:18;1.25;;;0.85;;
11425;SDS011;5769;47.998;7.788;2023-01-26T06:05:54;1.23;;;0.70;;
11425;SDS011;5769;47.998;7.788;2023-01-26T06:08:25;1.95;;;0.98;;
11425;SDS011;5769;47.998;7.788;2023-01-26T06:10:57;1.05;;;0.73;;
11425;SDS011;5769;47.998;7.788;2023-01-26T06:13:25;1.13;;;0.73;;
11425;SDS011;5769;47.998;7.788;2023-01-26T06:15:54;0.70;;;0.60;;
11425;SDS011;5769;47.998;7.788;2023-01-26T06:18:21;1.55;;;0.80;;
11425;SDS011;5769;47.998;7.788;2023-01-26T06:20:49;0.95;;;0.60;;
11425;SDS011;5769;47.998;7.788;2023-01-26T06:23:17;1.38;;;0.85;;
11425;SDS011;5769;47.998;7.788;2023-01-26T06:25:44;1.50;;;0.88;;
11425;SDS011;5769;47.998;7.788;2023-01-26T06:28:11;1.75;;;0.88;;
11425;SDS011;5769;47.998;7.788;2023-01-26T06:30:41;1.27;;;0.88;;
11425;SDS011;5769;47.998;7.788;2023-01-26T06:33:07;1.63;;;0.77;;
11425;SDS011;5769;47.998;7.788;2023-01-26T06:35:34;1.38;;;0.93;;
11425;SDS011;5769;47.998;7.788;2023-01-26T06:38:01;1.15;;;0.80;;
11425;SDS011;5769;47.998;7.788;2023-01-26T06:40:29;1.10;;;0.73;;
11425;SDS011;5769;47.998;7.788;2023-01-26T06:42:55;1.38;;;0.70;;
11425;SDS011;5769;47.998;7.788;2023-01-26T06:45:25;1.58;;;0.93;;
11425;SDS011;5769;47.998;7.788;2023-01-26T06:47:52;1.67;;;0.88;;
11425;SDS011;5769;47.998;7.788;2023-01-26T06:50:19;1.20;;;0.80;;
11425;SDS011;5769;47.998;7.788;2023-01-26T06:52:50;1.60;;;0.80;;
11425;SDS011;5769;47.998;7.788;2023-01-26T06:55:21;2.03;;;0.80;;
11425;SDS011;5769;47.998;7.788;2023-01-26T06:57:57;1.48;;;0.80;;
11425;SDS011;5769;47.998;7.788;2023-01-26T07:00:24;1.20;;;0.82;;
11425;SDS011;5769;47.998;7.788;2023-01-26T07:02:51;0.95;;;0.63;;
11425;SDS011;5769;47.998;7.788;2023-01-26T07:05:18;0.80;;;0.55;;
11425;SDS011;5769;47.998;7.788;2023-01-26T07:07:45;1.85;;;0.80;;
11425;SDS011;5769;47.998;7.788;2023-01-26T07:10:12;1.75;;;0.80;;
11425;SDS011;5769;47.998;7.788;2023-01-26T07:12:39;1.50;;;1.10;;
11425;SDS011;5769;47.998;7.788;2023-01-26T07:15:10;1.02;;;0.75;;
11425;SDS011;5769;47.998;7.788;2023-01-26T07:17:38;1.33;;;0.73;;
11425;SDS011;5769;47.998;7.788;2023-01-26T07:20:05;1.08;;;0.63;;
11425;SDS011;5769;47.998;7.788;2023-01-26T07:22:35;0.82;;;0.77;;
11425;SDS011;5769;47.998;7.788;2023-01-26T07:25:02;1.67;;;0.75;;
11425;SDS011;5769;47.998;7.788;2023-01-26T07:27:31;1.17;;;0.68;;
11425;SDS011;5769;47.998;7.788;2023-01-26T07:29:58;1.70;;;0.70;;
11425;SDS011;5769;47.998;7.788;2023-01-26T07:32:26;1.23;;;0.88;;
11425;SDS011;5769;47.998;7.788;2023-01-26T07:34:53;1.15;;;0.70;;
11425;SDS011;5769;47.998;7.788;2023-01-26T07:37:20;2.00;;;1.00;;
11425;SDS011;5769;47.998;7.788;2023-01-26T07:39:52;1.45;;;0.82;;
11425;SDS011;5769;47.998;7.788;2023-01-26T07:42:19;1.63;;;0.75;;
11425;SDS011;5769;47.998;7.788;2023-01-26T07:44:46;1.23;;;0.65;;
11425;SDS011;5769;47.998;7.788;2023-01-26T07:47:13;1.40;;;0.82;;
11425;SDS011;5769;47.998;7.788;2023-01-26T07:49:41;1.35;;;0.80;;
11425;SDS011;5769;47.998;7.788;2023-01-26T07:52:07;1.20;;;0.70;;
11425;SDS011;5769;47.998;7.788;2023-01-26T07:54:34;1.17;;;0.70;;
11425;SDS011;5769;47.998;7.788;2023-01-26T07:57:02;1.30;;;0.90;;
11425;SDS011;5769;47.998;7.788;2023-01-26T07:59:31;1.00;;;0.70;;
11425;SDS011;5769;47.998;7.788;2023-01-26T08:01:58;1.42;;;0.73;;
11425;SDS011;5769;47.998;7.788;2023-01-26T08:04:24;1.83;;;0.80;;
11425;SDS011;5769;47.998;7.788;2023-01-26T08:06:52;1.55;;;0.95;;
11425;SDS011;5769;47.998;7.788;2023-01-26T08:09:21;2.00;;;0.75;;
11425;SDS011;5769;47.998;7.788;2023-01-26T08:11:55;1.55;;;0.70;;
11425;SDS011;5769;47.998;7.788;2023-01-26T08:14:21;1.42;;;0.70;;
11425;SDS011;5769;47.998;7.788;2023-01-26T08:16:48;1.90;;;0.85;;
11425;SDS011;5769;47.998;7.788;2023-01-26T08:19:15;1.10;;;0.70;;
11425;SDS011;5769;47.998;7.788;2023-01-26T08:22:03;1.35;;;0.80;;
11425;SDS011;5769;47.998;7.788;2023-01-26T08:27:07;1.15;;;0.70;;
11425;SDS011;5769;47.998;7.788;2023-01-26T08:29:38;1.48;;;0.85;;
11425;SDS011;5769;47.998;7.788;2023-01-26T08:32:09;2.00;;;0.90;;
11425;SDS011;5769;47.998;7.788;2023-01-26T08:34:36;1.30;;;0.70;;
11425;SDS011;5769;47.998;7.788;2023-01-26T08:37:28;1.20;;;0.68;;
11425;SDS011;5769;47.998;7.788;2023-01-26T08:40:22;1.10;;;0.63;;
11425;SDS011;5769;47.998;7.788;2023-01-26T08:43:24;1.50;;;0.88;;
11425;SDS011;5769;47.998;7.788;2023-01-26T08:45:59;1.40;;;0.75;;
11425;SDS011;5769;47.998;7.788;2023-01-26T08:48:49;1.23;;;0.70;;
11425;SDS011;5769;47.998;7.788;2023-01-26T08:51:33;1.23;;;0.73;;
11425;SDS011;5769;47.998;7.788;2023-01-26T08:57:27;303.27;;;55.13;;
11425;SDS011;5769;47.998;7.788;2023-01-26T09:00:18;280.70;;;47.40;;
11425;SDS011;5769;47.998;7.788;2023-01-26T09:03:05;119.33;;;26.90;;
11425;SDS011;5769;47.998;7.788;2023-01-26T09:05:44;118.75;;;24.90;;
11425;SDS011;5769;47.998;7.788;2023-01-26T09:08:31;112.27;;;24.43;;
11425;SDS011;5769;47.998;7.788;2023-01-26T09:11:21;100.23;;;23.43;;
11425;SDS011;5769;47.998;7.788;2023-01-26T09:14:12;101.67;;;23.77;;
11425;SDS011;5769;47.998;7.788;2023-01-26T09:16:51;100.03;;;23.33;;
11425;SDS011;5769;47.998;7.788;2023-01-26T09:19:32;102.73;;;23.67;;
11425;SDS011;5769;47.998;7.788;2023-01-26T09:22:21;103.27;;;23.63;;
11425;SDS011;5769;47.998;7.788;2023-01-26T09:25:14;104.10;;;23.53;;
11425;SDS011;5769;47.998;7.788;2023-01-26T09:28:13;106.43;;;23.90;;
11425;SDS011;5769;47.998;7.788;2023-01-26T09:30:52;107.10;;;24.17;;
11425;SDS011;5769;47.998;7.788;2023-01-26T09:33:30;105.87;;;23.73;;
11425;SDS011;5769;47.998;7.788;2023-01-26T09:36:11;103.57;;;23.50;;
11425;SDS011;5769;47.998;7.788;2023-01-26T09:38:43;109.80;;;24.13;;
11425;SDS011;5769;47.998;7.788;2023-01-26T09:41:28;110.70;;;24.53;;
11425;SDS011;5769;47.998;7.788;2023-01-26T09:44:15;111.07;;;24.13;;
11425;SDS011;5769;47.998;7.788;2023-01-26T09:46:59;106.60;;;25.73;;
11425;SDS011;5769;47.998;7.788;2023-01-26T09:49:47;109.83;;;23.87;;
11425;SDS011;5769;47.998;7.788;2023-01-26T09:52:27;107.87;;;23.80;;
11425;SDS011;5769;47.998;7.788;2023-01-26T09:55:11;110.40;;;23.83;;
11425;SDS011;5769;47.998;7.788;2023-01-26T09:57:52;110.00;;;23.97;;
11425;SDS011;5769;47.998;7.788;2023-01-26T10:00:42;114.93;;;24.00;;
11425;SDS011;5769;47.998;7.788;2023-01-26T10:03:23;113.00;;;24.17;;
11425;SDS011;5769;47.998;7.788;2023-01-26T10:05:57;113.60;;;24.07;;
11425;SDS011;5769;47.998;7.788;2023-01-26T10:08:44;117.03;;;24.20;;
11425;SDS011;5769;47.998;7.788;2023-01-26T10:11:21;111.17;;;24.00;;
11425;SDS011;5769;47.998;7.788;2023-01-26T10:14:09;116.50;;;24.13;;
11425;SDS011;5769;47.998;7.788;2023-01-26T10:19:59;119.10;;;24.53;;
11425;SDS011;5769;47.998;7.788;2023-01-26T10:22:46;119.73;;;24.30;;
11425;SDS011;5769;47.998;7.788;2023-01-26T10:25:26;219.80;;;39.43;;
11425;SDS011;5769;47.998;7.788;2023-01-26T10:28:21;129.93;;;25.13;;
11425;SDS011;5769;47.998;7.788;2023-01-26T10:31:26;129.60;;;25.07;;
11425;SDS011;5769;47.998;7.788;2023-01-26T10:34:11;132.00;;;25.57;;
11425;SDS011;5769;47.998;7.788;2023-01-26T10:36:52;132.40;;;26.00;;
11425;SDS011;5769;47.998;7.788;2023-01-26T10:39:54;132.67;;;25.77;;
11425;SDS011;5769;47.998;7.788;2023-01-26T10:42:52;132.67;;;27.10;;
11425;SDS011;5769;47.998;7.788;2023-01-26T10:45:43;133.40;;;25.90;;
11425;SDS011;5769;47.998;7.788;2023-01-26T10:48:20;133.87;;;26.17;;
11425;SDS011;5769;47.998;7.788;2023-01-26T10:54:32;132.90;;;25.97;;
11425;SDS011;5769;47.998;7.788;2023-01-26T11:00:18;132.37;;;26.20;;
11425;SDS011;5769;47.998;7.788;2023-01-26T11:05:52;132.07;;;26.10;;
11425;SDS011;5769;47.998;7.788;2023-01-26T11:08:51;132.73;;;26.50;;
11425;SDS011;5769;47.998;7.788;2023-01-26T11:12:08;132.37;;;26.63;;
11425;SDS011;5769;47.998;7.788;2023-01-26T11:15:04;131.87;;;26.13;;
11425;SDS011;5769;47.998;7.788;2023-01-26T11:18:12;131.50;;;25.93;;
11425;SDS011;5769;47.998;7.788;2023-01-26T11:20:58;132.10;;;26.03;;
11425;SDS011;5769;47.998;7.788;2023-01-26T11:23:43;132.47;;;25.90;;
11425;SDS011;5769;47.998;7.788;2023-01-26T11:32:58;132.13;;;25.63;;
11425;SDS011;5769;47.998;7.788;2023-01-26T11:35:35;132.17;;;25.57;;
11425;SDS011;5769;47.998;7.788;2023-01-26T11:38:35;132.93;;;26.17;;
11425;SDS011;5769;47.998;7.788;2023-01-26T11:41:22;133.23;;;27.60;;
11425;SDS011;5769;47.998;7.788;2023-01-26T11:47:48;133.47;;;26.37;;
11425;SDS011;5769;47.998;7.788;2023-01-26T11:50:39;133.07;;;26.20;;
11425;SDS011;5769;47.998;7.788;2023-01-26T11:57:20;132.83;;;26.20;;
11425;SDS011;5769;47.998;7.788;2023-01-26T12:00:01;132.87;;;26.20;;
11425;SDS011;5769;47.998;7.788;2023-01-26T12:05:36;132.13;;;26.00;;
11425;SDS011;5769;47.998;7.788;2023-01-26T12:08:27;132.93;;;26.17;;
11425;SDS011;5769;47.998;7.788;2023-01-26T12:11:32;131.73;;;25.67;;
11425;SDS011;5769;47.998;7.788;2023-01-26T12:14:17;131.67;;;25.90;;
11425;SDS011;5769;47.998;7.788;2023-01-26T12:17:10;131.67;;;26.03;;
11425;SDS011;5769;47.998;7.788;2023-01-26T12:20:16;130.70;;;25.80;;
11425;SDS011;5769;47.998;7.788;2023-01-26T12:22:53;131.80;;;29.97;;
11425;SDS011;5769;47.998;7.788;2023-01-26T12:25:49;130.73;;;25.63;;
11425;SDS011;5769;47.998;7.788;2023-01-26T12:28:35;132.20;;;25.93;;
11425;SDS011;5769;47.998;7.788;2023-01-26T12:34:07;130.93;;;25.97;;
11425;SDS011;5769;47.998;7.788;2023-01-26T12:37:11;131.17;;;25.73;;
11425;SDS011;5769;47.998;7.788;2023-01-26T12:40:11;131.47;;;25.83;;
11425;SDS011;5769;47.998;7.788;2023-01-26T12:43:05;130.63;;;25.53;;
11425;SDS011;5769;47.998;7.788;2023-01-26T12:45:55;131.23;;;25.60;;
11425;SDS011;5769;47.998;7.788;2023-01-26T12:48:42;130.73;;;25.67;;
11425;SDS011;5769;47.998;7.788;2023-01-26T12:51:51;131.03;;;25.57;;
11425;SDS011;5769;47.998;7.788;2023-01-26T12:55:01;131.20;;;25.67;;
11425;SDS011;5769;47.998;7.788;2023-01-26T12:57:57;130.77;;;25.43;;
11425;SDS011;5769;47.998;7.788;2023-01-26T13:00:37;131.93;;;26.20;;
11425;SDS011;5769;47.998;7.788;2023-01-26T13:03:29;131.47;;;25.53;;
11425;SDS011;5769;47.998;7.788;2023-01-26T13:06:16;130.33;;;25.43;;
11425;SDS011;5769;47.998;7.788;2023-01-26T13:09:00;131.23;;;25.60;;
11425;SDS011;5769;47.998;7.788;2023-01-26T13:18:16;131.53;;;25.80;;
11425;SDS011;5769;47.998;7.788;2023-01-26T13:20:59;131.30;;;25.60;;
11425;SDS011;5769;47.998;7.788;2023-01-26T13:36:05;131.60;;;25.60;;
11425;SDS011;5769;47.998;7.788;2023-01-26T13:39:12;131.50;;;26.00;;
11425;SDS011;5769;47.998;7.788;2023-01-26T13:42:09;132.93;;;25.80;;
11425;SDS011;5769;47.998;7.788;2023-01-26T13:44:55;132.23;;;25.57;;
11425;SDS011;5769;47.998;7.788;2023-01-26T13:47:41;129.73;;;25.33;;
11425;SDS011;5769;47.998;7.788;2023-01-26T13:50:32;129.30;;;25.40;;
11425;SDS011;5769;47.998;7.788;2023-01-26T13:53:25;130.17;;;25.43;;
11425;SDS011;5769;47.998;7.788;2023-01-26T13:56:18;131.60;;;25.70;;
11425;SDS011;5769;47.998;7.788;2023-01-26T13:59:17;131.20;;;25.63;;
11425;SDS011;5769;47.998;7.788;2023-01-26T14:01:51;131.90;;;25.73;;
11425;SDS011;5769;47.998;7.788;2023-01-26T14:05:19;130.03;;;25.40;;
11425;SDS011;5769;47.998;7.788;2023-01-26T14:07:51;129.30;;;25.40;;
11425;SDS011;5769;47.998;7.788;2023-01-26T14:10:35;132.23;;;25.83;;
11425;SDS011;5769;47.998;7.788;2023-01-26T14:13:21;129.70;;;25.67;;
11425;SDS011;5769;47.998;7.788;2023-01-26T14:16:18;130.57;;;25.67;;
11425;SDS011;5769;47.998;7.788;2023-01-26T14:19:11;131.57;;;25.57;;
11425;SDS011;5769;47.998;7.788;2023-01-26T14:21:49;131.43;;;25.63;;
11425;SDS011;5769;47.998;7.788;2023-01-26T14:24:35;132.03;;;25.80;;
11425;SDS011;5769;47.998;7.788;2023-01-26T14:30:20;131.63;;;25.83;;
11425;SDS011;5769;47.998;7.788;2023-01-26T14:33:12;129.80;;;25.40;;
11425;SDS011;5769;47.998;7.788;2023-01-26T14:36:00;131.67;;;25.77;;
11425;SDS011;5769;47.998;7.788;2023-01-26T14:38:39;130.57;;;25.97;;
11425;SDS011;5769;47.998;7.788;2023-01-26T14:41:23;130.03;;;25.50;;
11425;SDS011;5769;47.998;7.788;2023-01-26T14:44:07;130.13;;;25.93;;
11425;SDS011;5769;47.998;7.788;2023-01-26T14:46:50;131.43;;;25.80;;
11425;SDS011;5769;47.998;7.788;2023-01-26T14:49:27;128.63;;;25.47;;
11425;SDS011;5769;47.998;7.788;2023-01-26T14:52:17;132.23;;;26.10;;
11425;SDS011;5769;47.998;7.788;2023-01-26T14:55:10;129.73;;;25.57;;
11425;SDS011;5769;47.998;7.788;2023-01-26T14:57:52;131.30;;;25.50;;
11425;SDS011;5769;47.998;7.788;2023-01-26T15:00:27;129.60;;;25.50;;
11425;SDS011;5769;47.998;7.788;2023-01-26T15:03:04;129.97;;;25.37;;
11425;SDS011;5769;47.998;7.788;2023-01-26T15:05:40;130.10;;;25.53;;
11425;SDS011;5769;47.998;7.788;2023-01-26T15:08:23;131.03;;;25.70;;
11425;SDS011;5769;47.998;7.788;2023-01-26T15:13:53;130.83;;;25.83;;
11425;SDS011;5769;47.998;7.788;2023-01-26T15:16:50;131.87;;;25.90;;
11425;SDS011;5769;47.998;7.788;2023-01-26T15:19:29;131.43;;;25.63;;
11425;SDS011;5769;47.998;7.788;2023-01-26T15:22:02;132.47;;;25.97;;
11425;SDS011;5769;47.998;7.788;2023-01-26T15:24:42;131.20;;;25.57;;
11425;SDS011;5769;47.998;7.788;2023-01-26T15:27:10;131.83;;;26.17;;
11425;SDS011;5769;47.998;7.788;2023-01-26T15:29:41;132.67;;;25.97;;
11425;SDS011;5769;47.998;7.788;2023-01-26T15:32:26;131.03;;;25.77;;
11425;SDS011;5769;47.998;7.788;2023-01-26T15:35:02;131.37;;;25.73;;
11425;SDS011;5769;47.998;7.788;2023-01-26T15:37:34;132.57;;;25.93;;
11425;SDS011;5769;47.998;7.788;2023-01-26T15:40:01;130.50;;;25.50;;
11425;SDS011;5769;47.998;7.788;2023-01-26T15:42:31;131.80;;;26.37;;
11425;SDS011;5769;47.998;7.788;2023-01-26T15:45:05;131.33;;;25.83;;
11425;SDS011;5769;47.998;7.788;2023-01-26T15:47:45;130.53;;;25.53;;
11425;SDS011;5769;47.998;7.788;2023-01-26T15:50:12;131.77;;;25.83;;
11425;SDS011;5769;47.998;7.788;2023-01-26T15:52:39;130.60;;;26.37;;
11425;SDS011;5769;47.998;7.788;2023-01-26T15:55:10;131.67;;;26.00;;
11425;SDS011;5769;47.998;7.788;2023-01-26T15:57:44;130.57;;;25.63;;
11425;SDS011;5769;47.998;7.788;2023-01-26T16:00:19;130.93;;;25.90;;
11425;SDS011;5769;47.998;7.788;2023-01-26T16:02:47;130.53;;;25.80;;
11425;SDS011;5769;47.998;7.788;2023-01-26T16:05:16;132.13;;;25.97;;
11425;SDS011;5769;47.998;7.788;2023-01-26T16:10:45;131.33;;;25.90;;
11425;SDS011;5769;47.998;7.788;2023-01-26T16:13:13;130.30;;;25.70;;
11425;SDS011;5769;47.998;7.788;2023-01-26T16:16:03;130.57;;;25.90;;
11425;SDS011;5769;47.998;7.788;2023-01-26T16:19:00;131.33;;;26.00;;
11425;SDS011;5769;47.998;7.788;2023-01-26T16:21:32;131.10;;;25.63;;
11425;SDS011;5769;47.998;7.788;2023-01-26T16:24:20;130.60;;;26.50;;
11425;SDS011;5769;47.998;7.788;2023-01-26T16:27:09;130.67;;;25.67;;
11425;SDS011;5769;47.998;7.788;2023-01-26T16:29:48;132.47;;;25.87;;
11425;SDS011;5769;47.998;7.788;2023-01-26T16:32:23;131.30;;;25.73;;
11425;SDS011;5769;47.998;7.788;2023-01-26T16:35:14;131.63;;;26.20;;
11425;SDS011;5769;47.998;7.788;2023-01-26T16:38:03;131.00;;;25.97;;
11425;SDS011;5769;47.998;7.788;2023-01-26T16:40:39;132.17;;;25.93;;
11425;SDS011;5769;47.998;7.788;2023-01-26T16:43:18;132.87;;;26.40;;
11425;SDS011;5769;47.998;7.788;2023-01-26T16:51:53;130.97;;;25.50;;
11425;SDS011;5769;47.998;7.788;2023-01-26T16:54:30;131.40;;;25.63;;